createdAt,value
2019-06-07T00:02:18.853Z,96.00
2019-06-07T00:04:46.973Z,96.30
2019-06-07T00:07:17.761Z,96.40
2019-06-07T00:09:46.600Z,96.40
2019-06-07T00:12:17.579Z,96.40
2019-06-07T00:14:45.553Z,96.50
2019-06-07T00:17:15.354Z,96.60
2019-06-07T00:19:44.383Z,96.50
2019-06-07T00:22:18.501Z,96.60
2019-06-07T00:24:42.055Z,96.70
2019-06-07T00:27:12.953Z,96.70
2019-06-07T00:29:40.879Z,96.70
2019-06-07T00:32:09.290Z,96.60
2019-06-07T00:34:37.303Z,96.50
2019-06-07T00:37:05.166Z,96.50
2019-06-07T00:39:33.042Z,96.50
2019-06-07T00:42:00.982Z,96.30
2019-06-07T00:44:29.016Z,96.50
2019-06-07T00:46:56.855Z,96.60
2019-06-07T00:49:40.107Z,96.60
2019-06-07T00:51:54.557Z,96.60
2019-06-07T00:54:24.677Z,96.90
2019-06-07T00:56:52.292Z,96.80
2019-06-07T00:59:24.332Z,96.90
2019-06-07T01:01:49.937Z,96.90
2019-06-07T01:04:20.777Z,97.00
2019-06-07T01:06:47.730Z,97.20
2019-06-07T01:09:15.619Z,97.30
2019-06-07T01:11:43.488Z,96.90
2019-06-07T01:14:11.373Z,96.90
2019-06-07T01:16:56.466Z,96.80
2019-06-07T01:19:08.997Z,96.60
2019-06-07T01:21:37.034Z,96.40
2019-06-07T01:24:11.877Z,96.50
2019-06-07T01:26:34.755Z,96.70
2019-06-07T01:29:02.659Z,96.40
2019-06-07T01:31:31.480Z,96.40
2019-06-07T01:34:00.939Z,96.60
2019-06-07T01:36:30.823Z,96.60
2019-06-07T01:38:58.635Z,96.80
2019-06-07T01:41:30.118Z,96.60
2019-06-07T01:43:56.326Z,96.80
2019-06-07T01:46:26.735Z,96.70
2019-06-07T01:48:54.001Z,96.70
2019-06-07T01:51:22.091Z,96.80
2019-06-07T01:53:50.015Z,96.50
2019-06-07T01:56:18.895Z,96.50
2019-06-07T01:58:47.615Z,96.60
2019-06-07T02:01:15.480Z,96.50
2019-06-07T02:03:43.310Z,97.00
2019-06-07T02:06:11.275Z,97.00
2019-06-07T02:08:39.210Z,97.00
2019-06-07T02:11:07.115Z,97.10
2019-06-07T02:13:34.972Z,97.20
2019-06-07T02:16:14.493Z,96.80
2019-06-07T02:19:00.784Z,97.20
2019-06-07T02:21:12.337Z,97.00
2019-06-07T02:23:40.248Z,97.00
2019-06-07T02:26:08.098Z,96.90
2019-06-07T02:28:45.119Z,97.10
2019-06-07T02:31:05.838Z,97.00
2019-06-07T02:33:39.759Z,97.00
2019-06-07T02:36:03.395Z,97.30
2019-06-07T02:38:37.077Z,96.80
2019-06-07T02:41:01.007Z,96.90
2019-06-07T02:43:33.199Z,97.50
2019-06-07T02:46:21.322Z,97.60
2019-06-07T02:48:35.300Z,97.40
2019-06-07T02:50:58.146Z,97.50
2019-06-07T02:53:27.696Z,97.30
2019-06-07T02:56:35.259Z,97.30
2019-06-07T02:58:29.944Z,97.20
2019-06-07T03:01:06.997Z,97.30
2019-06-07T03:03:28.350Z,97.20
2019-06-07T03:05:55.959Z,97.30
2019-06-07T03:08:25.825Z,97.00
2019-06-07T03:10:54.156Z,97.10
2019-06-07T03:13:22.547Z,97.30
2019-06-07T03:15:52.560Z,97.40
2019-06-07T03:18:41.695Z,97.50
2019-06-07T03:21:17.291Z,97.60
2019-06-07T03:23:45.767Z,97.60
2019-06-07T03:26:15.229Z,97.70
2019-06-07T03:28:43.343Z,98.10
2019-06-07T03:31:11.220Z,98.00
2019-06-07T03:33:42.667Z,98.00
2019-06-07T03:36:23.246Z,97.90
2019-06-07T03:38:52.015Z,97.90
2019-06-07T03:41:19.934Z,98.00
2019-06-07T03:43:47.862Z,98.00
2019-06-07T03:46:15.712Z,97.90
2019-06-07T03:48:43.604Z,97.90
2019-06-07T03:51:24.006Z,97.80
2019-06-07T03:53:41.265Z,97.80
2019-06-07T03:56:09.590Z,97.90
2019-06-07T03:58:48.596Z,97.70
2019-06-07T04:01:07.283Z,97.60
2019-06-07T04:03:45.399Z,97.40
2019-06-07T04:06:04.954Z,97.40
2019-06-07T04:08:34.465Z,97.30
2019-06-07T04:11:02.593Z,97.40
2019-06-07T04:13:34.814Z,97.60
2019-06-07T04:16:00.380Z,97.90
2019-06-07T04:18:28.230Z,97.60
2019-06-07T04:20:56.105Z,97.50
2019-06-07T04:23:28.272Z,97.70
2019-06-07T04:25:56.465Z,97.70
2019-06-07T04:29:16.528Z,97.80
2019-06-07T04:30:54.081Z,98.00
2019-06-07T04:33:21.968Z,97.90
2019-06-07T04:35:50.071Z,97.90
2019-06-07T04:38:17.918Z,97.90
2019-06-07T04:40:47.098Z,98.30
2019-06-07T04:43:15.009Z,98.40
2019-06-07T04:45:50.733Z,98.20
2019-06-07T04:48:13.777Z,98.10
2019-06-07T04:50:44.127Z,97.90
2019-06-07T04:53:11.396Z,98.00
2019-06-07T04:55:41.374Z,97.90
2019-06-07T04:58:09.157Z,97.60
2019-06-07T05:00:59.270Z,97.60
2019-06-07T05:03:06.925Z,97.60
2019-06-07T05:05:37.451Z,97.60
2019-06-07T05:08:07.372Z,97.50
2019-06-07T05:10:37.830Z,97.50
2019-06-07T05:13:04.391Z,97.60
2019-06-07T05:15:32.308Z,97.60
2019-06-07T05:18:00.250Z,97.20
2019-06-07T05:20:28.205Z,97.30
2019-06-07T05:22:56.123Z,97.00
2019-06-07T05:25:25.078Z,96.70
2019-06-07T05:27:52.995Z,96.50
2019-06-07T05:33:04.021Z,96.00
2019-06-07T05:35:33.086Z,96.00
2019-06-07T05:38:01.322Z,95.90
2019-06-07T05:40:38.735Z,95.90
2019-06-07T05:43:05.703Z,95.50
2019-06-07T05:45:38.467Z,94.70
2019-06-07T05:48:06.822Z,95.00
2019-06-07T05:50:44.947Z,94.90
2019-06-07T05:53:05.320Z,94.40
2019-06-07T05:55:35.293Z,93.80
2019-06-07T05:58:03.412Z,93.80
2019-06-07T06:00:31.288Z,93.30
2019-06-07T06:03:05.396Z,92.60
2019-06-07T06:05:34.387Z,92.10
2019-06-07T06:07:58.772Z,92.10
2019-06-07T06:10:26.612Z,91.60
2019-06-07T06:12:54.494Z,90.80
2019-06-07T06:15:41.688Z,88.00
2019-06-07T06:17:53.860Z,87.80
2019-06-07T06:20:23.067Z,90.00
2019-06-07T06:22:51.282Z,90.80
2019-06-07T06:25:35.068Z,90.80
2019-06-07T06:28:10.008Z,90.80
2019-06-07T06:30:22.540Z,90.90
2019-06-07T06:32:57.863Z,90.30
2019-06-07T06:35:22.189Z,90.60
2019-06-07T06:37:53.195Z,90.00
2019-06-07T06:40:20.909Z,90.30
2019-06-07T06:42:50.535Z,88.50
2019-06-07T06:45:18.962Z,88.60
2019-06-07T06:47:49.048Z,88.20
2019-06-07T06:50:16.899Z,85.50
2019-06-07T06:52:47.983Z,83.80
2019-06-07T06:55:14.622Z,82.10
2019-06-07T06:57:43.486Z,80.40
2019-06-07T07:00:12.192Z,80.00
2019-06-07T07:03:26.998Z,81.20
2019-06-07T07:05:11.335Z,79.40
2019-06-07T07:07:40.292Z,80.50
2019-06-07T07:10:10.806Z,80.30
2019-06-07T07:12:38.669Z,80.10
2019-06-07T07:15:07.548Z,79.60
2019-06-07T07:17:50.752Z,77.90
2019-06-07T07:20:05.780Z,75.70
2019-06-07T07:22:33.700Z,75.40
2019-06-07T07:25:01.562Z,75.70
2019-06-07T07:27:29.534Z,77.40
2019-06-07T07:30:34.695Z,76.30
2019-06-07T07:32:27.180Z,77.00
2019-06-07T07:35:00.328Z,77.40
2019-06-07T07:37:25.827Z,76.10
2019-06-07T07:40:01.205Z,74.70
2019-06-07T07:42:24.621Z,76.40
2019-06-07T07:44:54.911Z,76.00
2019-06-07T07:47:22.320Z,75.20
2019-06-07T07:49:53.007Z,75.40
2019-06-07T07:52:20.046Z,76.30
2019-06-07T07:54:57.798Z,74.40
2019-06-07T07:57:23.401Z,75.00
2019-06-07T08:00:06.155Z,75.20
2019-06-07T08:02:21.096Z,74.20
2019-06-07T08:07:18.756Z,73.50
2019-06-07T08:09:47.485Z,71.80
2019-06-07T08:12:16.386Z,71.40
2019-06-07T08:14:44.268Z,70.10
2019-06-07T08:17:13.562Z,69.50
2019-06-07T08:19:42.668Z,69.00
2019-06-07T08:22:10.540Z,67.50
2019-06-07T08:24:38.417Z,65.50
2019-06-07T08:27:25.205Z,63.50
2019-06-07T08:29:45.003Z,62.10
2019-06-07T08:32:05.865Z,60.70
2019-06-07T08:34:33.700Z,60.30
2019-06-07T08:37:02.198Z,58.10
2019-06-07T08:39:30.167Z,56.80
2019-06-07T08:42:11.915Z,57.20
2019-06-07T08:44:28.056Z,58.90
2019-06-07T08:47:12.579Z,58.50
2019-06-07T08:49:25.741Z,57.50
2019-06-07T08:51:57.731Z,56.40
2019-06-07T08:54:23.646Z,55.10
2019-06-07T08:56:53.669Z,56.70
2019-06-07T08:59:21.575Z,55.60
2019-06-07T09:01:49.429Z,57.20
2019-06-07T09:04:17.357Z,57.60
2019-06-07T09:09:15.056Z,58.40
2019-06-07T09:11:42.887Z,59.20
2019-06-07T09:14:10.737Z,59.10
2019-06-07T09:16:38.646Z,56.60
2019-06-07T09:19:10.675Z,56.50
2019-06-07T09:21:36.297Z,55.50
2019-06-07T09:24:11.363Z,55.10
2019-06-07T09:26:34.059Z,57.00
2019-06-07T09:29:07.071Z,55.60
2019-06-07T09:31:51.210Z,54.80
2019-06-07T09:34:08.312Z,52.70
2019-06-07T09:36:31.833Z,53.40
2019-06-07T09:39:06.437Z,54.40
2019-06-07T09:41:47.797Z,54.60
2019-06-07T09:44:21.568Z,52.80
2019-06-07T09:46:34.628Z,53.00
2019-06-07T09:49:18.921Z,53.10
2019-06-07T09:51:32.353Z,53.70
2019-06-07T09:54:01.302Z,53.90
2019-06-07T09:56:30.116Z,54.50
2019-06-07T09:59:00.376Z,54.00
2019-06-07T10:01:27.959Z,52.90
2019-06-07T10:04:02.322Z,52.00
2019-06-07T10:06:25.787Z,52.00
2019-06-07T10:10:08.259Z,53.10
2019-06-07T10:11:24.630Z,52.90
2019-06-07T10:13:52.532Z,52.90
2019-06-07T10:16:20.510Z,51.70
2019-06-07T10:18:48.432Z,51.30
2019-06-07T10:21:16.878Z,51.00
2019-06-07T10:23:44.831Z,51.90
2019-06-07T10:26:12.759Z,51.40
2019-06-07T10:28:40.678Z,50.90
2019-06-07T10:31:10.932Z,50.80
2019-06-07T10:33:38.395Z,50.90
2019-06-07T10:36:08.379Z,50.80
2019-06-07T10:38:36.458Z,50.90
2019-06-07T10:41:04.715Z,50.10
2019-06-07T10:43:32.735Z,49.20
2019-06-07T10:46:01.477Z,50.30
2019-06-07T10:48:29.324Z,50.10
2019-06-07T10:50:57.235Z,50.30
2019-06-07T10:53:25.289Z,49.80
2019-06-07T10:55:53.171Z,49.80
2019-06-07T10:58:21.221Z,48.80
2019-06-07T11:00:49.449Z,48.00
2019-06-07T11:03:17.379Z,48.20
2019-06-07T11:05:45.306Z,49.50
2019-06-07T11:08:14.905Z,47.90
2019-06-07T11:10:42.930Z,47.30
2019-06-07T11:13:10.800Z,47.50
2019-06-07T11:15:38.695Z,47.50
2019-06-07T11:18:08.299Z,45.70
2019-06-07T11:20:36.409Z,45.40
2019-06-07T11:23:04.330Z,45.10
2019-06-07T11:25:32.210Z,45.10
2019-06-07T11:28:00.278Z,45.40
2019-06-07T11:30:28.313Z,45.30
2019-06-07T11:32:56.200Z,45.10
2019-06-07T11:35:24.092Z,44.60
2019-06-07T11:37:52.027Z,44.90
2019-06-07T11:40:34.809Z,45.10
2019-06-07T11:42:52.782Z,45.10
2019-06-07T11:45:20.045Z,44.40
2019-06-07T11:47:48.013Z,42.60
2019-06-07T11:50:17.579Z,42.60
2019-06-07T11:52:46.553Z,43.10
2019-06-07T11:55:15.844Z,42.60
2019-06-07T11:57:43.994Z,42.60
2019-06-07T12:00:16.309Z,42.80
2019-06-07T12:02:45.082Z,43.40
2019-06-07T12:05:17.175Z,43.30
2019-06-07T12:07:43.765Z,42.60
2019-06-07T12:10:12.553Z,43.20
2019-06-07T12:12:40.866Z,42.90
2019-06-07T12:15:09.105Z,42.40
2019-06-07T12:17:37.169Z,42.70
2019-06-07T12:20:08.541Z,42.50
2019-06-07T12:22:35.229Z,42.70
2019-06-07T12:25:05.918Z,43.00
2019-06-07T12:27:33.645Z,43.10
2019-06-07T12:30:09.734Z,41.50
2019-06-07T12:32:31.754Z,39.70
2019-06-07T12:34:59.658Z,39.20
2019-06-07T12:37:42.685Z,37.70
2019-06-07T12:39:57.473Z,37.30
2019-06-07T12:42:25.460Z,37.20
2019-06-07T12:44:53.432Z,37.40
2019-06-07T12:47:21.412Z,38.50
2019-06-07T12:49:50.811Z,38.90
2019-06-07T12:52:20.112Z,37.50
2019-06-07T12:54:48.697Z,37.40
2019-06-07T12:57:17.938Z,37.90
2019-06-07T12:59:46.055Z,38.00
2019-06-07T13:02:14.245Z,37.80
2019-06-07T13:04:42.393Z,37.10
2019-06-07T13:07:10.395Z,36.10
2019-06-07T13:09:38.305Z,35.90
2019-06-07T13:12:06.247Z,35.30
2019-06-07T13:14:34.164Z,35.10
2019-06-07T13:17:02.106Z,33.40
2019-06-07T13:19:30.050Z,33.30
2019-06-07T13:21:58.019Z,32.80
2019-06-07T13:24:25.894Z,30.60
2019-06-07T13:26:53.848Z,29.90
2019-06-07T13:29:22.664Z,29.80
2019-06-07T13:31:50.703Z,28.40
2019-06-07T13:34:20.419Z,27.70
2019-06-07T13:36:48.527Z,27.40
2019-06-07T13:39:17.113Z,26.50
2019-06-07T13:41:45.165Z,26.50
2019-06-07T13:44:13.161Z,25.20
2019-06-07T13:46:42.041Z,25.20
2019-06-07T13:49:09.954Z,25.40
2019-06-07T13:51:37.856Z,25.10
2019-06-07T13:54:05.866Z,25.80
2019-06-07T13:56:35.122Z,26.40
2019-06-07T13:59:03.080Z,26.10
2019-06-07T14:01:31.088Z,25.20
2019-06-07T14:03:58.968Z,24.70
2019-06-07T14:06:28.179Z,24.70
2019-06-07T14:08:57.637Z,24.80
2019-06-07T14:11:25.679Z,24.10
2019-06-07T14:13:53.528Z,24.60
2019-06-07T14:16:22.103Z,24.20
2019-06-07T14:18:50.043Z,24.90
2019-06-07T14:21:17.981Z,25.60
2019-06-07T14:23:49.051Z,24.30
2019-06-07T14:26:15.838Z,25.20
2019-06-07T14:28:43.805Z,25.90
2019-06-07T14:31:11.691Z,24.90
2019-06-07T14:33:39.675Z,24.60
2019-06-07T14:36:10.034Z,24.20
2019-06-07T14:38:48.026Z,24.70
2019-06-07T14:41:15.939Z,26.20
2019-06-07T14:43:43.940Z,26.70
2019-06-07T14:46:11.881Z,26.90
2019-06-07T14:48:39.792Z,25.80
2019-06-07T14:51:07.757Z,25.90
2019-06-07T14:53:35.728Z,26.60
2019-06-07T14:56:03.856Z,25.90
2019-06-07T14:58:31.822Z,25.50
2019-06-07T15:00:59.698Z,25.30
2019-06-07T15:03:28.403Z,24.70
2019-06-07T15:05:56.404Z,23.70
2019-06-07T15:08:24.361Z,22.80
2019-06-07T15:10:52.333Z,22.50
2019-06-07T15:13:20.304Z,23.00
2019-06-07T15:15:48.191Z,23.30
2019-06-07T15:18:16.080Z,24.60
2019-06-07T15:20:44.029Z,27.00
2019-06-07T15:23:11.939Z,28.60
2019-06-07T15:25:39.856Z,29.40
2019-06-07T15:28:07.866Z,30.40
2019-06-07T15:30:35.818Z,30.80
2019-06-07T15:33:03.804Z,31.50
2019-06-07T15:35:32.288Z,30.20
2019-06-07T15:38:00.236Z,32.10
2019-06-07T15:40:29.035Z,31.70
2019-06-07T15:42:57.012Z,31.60
2019-06-07T15:45:25.044Z,32.20
2019-06-07T15:47:52.938Z,33.50
2019-06-07T15:50:20.967Z,32.90
2019-06-07T15:52:48.946Z,32.80
2019-06-07T15:55:17.919Z,33.10
2019-06-07T15:57:45.878Z,33.90
2019-06-07T16:00:14.092Z,34.00
2019-06-07T16:02:42.183Z,33.50
2019-06-07T16:05:10.600Z,33.70
2019-06-07T16:07:38.610Z,34.10
2019-06-07T16:10:08.138Z,34.80
2019-06-07T16:12:36.730Z,35.20
2019-06-07T16:15:06.458Z,36.60
2019-06-07T16:17:35.441Z,35.20
2019-06-07T16:20:05.207Z,34.20
2019-06-07T16:22:33.562Z,33.80
2019-06-07T16:25:01.615Z,32.80
2019-06-07T16:27:29.450Z,32.50
2019-06-07T16:29:57.387Z,31.20
2019-06-07T16:32:25.374Z,30.80
2019-06-07T16:34:53.239Z,30.70
2019-06-07T16:37:21.168Z,30.10
2019-06-07T16:39:49.086Z,29.10
2019-06-07T16:42:17.124Z,28.50
2019-06-07T16:44:45.095Z,28.70
2019-06-07T16:47:13.074Z,27.10
2019-06-07T16:49:43.029Z,26.90
2019-06-07T16:52:11.630Z,24.70
2019-06-07T16:54:39.685Z,24.40
2019-06-07T16:57:07.634Z,25.00
2019-06-07T16:59:36.721Z,28.40
2019-06-07T17:02:04.714Z,29.30
2019-06-07T17:04:32.669Z,29.90
2019-06-07T17:07:03.799Z,35.50
2019-06-07T17:09:31.816Z,41.60
2019-06-07T17:12:00.162Z,49.40
2019-06-07T17:14:28.211Z,49.20
2019-06-07T17:16:58.968Z,56.30
2019-06-07T17:19:27.115Z,60.00
2019-06-07T17:21:55.108Z,65.50
2019-06-07T17:24:26.600Z,72.10
2019-06-07T17:26:52.997Z,73.00
2019-06-07T17:29:21.043Z,75.00
2019-06-07T17:31:50.270Z,75.50
2019-06-07T17:34:22.119Z,78.30
2019-06-07T17:36:50.710Z,79.00
2019-06-07T17:39:18.828Z,82.70
2019-06-07T17:41:56.192Z,82.50
2019-06-07T17:44:16.561Z,82.00
2019-06-07T17:46:45.565Z,72.90
2019-06-07T17:49:13.749Z,71.90
2019-06-07T17:51:44.119Z,63.80
2019-06-07T17:54:12.307Z,59.50
2019-06-07T17:56:40.217Z,59.90
2019-06-07T17:59:08.146Z,59.90
2019-06-07T18:01:41.378Z,56.90
2019-06-07T18:04:08.633Z,55.70
2019-06-07T18:06:39.131Z,54.40
2019-06-07T18:09:08.631Z,52.20
2019-06-07T18:11:36.621Z,50.00
2019-06-07T18:14:10.650Z,48.10
2019-06-07T18:16:35.742Z,47.90
2019-06-07T18:19:03.794Z,49.60
2019-06-07T18:21:31.847Z,50.70
2019-06-07T18:23:59.982Z,52.00
2019-06-07T18:26:28.095Z,54.00
2019-06-07T18:28:56.196Z,55.60
2019-06-07T18:31:24.123Z,57.80
2019-06-07T18:33:52.994Z,60.90
2019-06-07T18:36:21.096Z,60.20
2019-06-07T18:38:49.266Z,61.60
2019-06-07T18:41:17.283Z,63.10
2019-06-07T18:43:47.032Z,61.60
2019-06-07T18:46:15.250Z,60.20
2019-06-07T18:48:43.220Z,60.80
2019-06-07T18:51:11.206Z,62.50
2019-06-07T18:53:39.326Z,65.10
2019-06-07T18:56:07.306Z,62.70
2019-06-07T18:58:35.204Z,63.10
2019-06-07T19:01:03.147Z,66.50
2019-06-07T19:03:37.308Z,71.20
2019-06-07T19:06:06.368Z,71.60
2019-06-07T19:08:34.319Z,73.80
2019-06-07T19:11:02.361Z,75.70
2019-06-07T19:13:30.234Z,75.90
2019-06-07T19:15:58.184Z,74.30
2019-06-07T19:18:26.082Z,74.20
2019-06-07T19:20:54.349Z,74.80
2019-06-07T19:23:22.421Z,74.40
2019-06-07T19:25:50.327Z,71.00
2019-06-07T19:28:18.349Z,66.00
2019-06-07T19:30:46.346Z,68.70
2019-06-07T19:33:14.295Z,71.60
2019-06-07T19:35:42.304Z,72.70
2019-06-07T19:38:10.227Z,73.80
2019-06-07T19:40:38.196Z,74.00
2019-06-07T19:43:06.175Z,74.60
2019-06-07T19:45:34.110Z,73.50
2019-06-07T19:48:02.846Z,72.40
2019-06-07T19:50:30.861Z,72.00
2019-06-07T19:52:59.174Z,73.60
2019-06-07T19:55:27.205Z,72.90
2019-06-07T19:57:55.561Z,71.70
2019-06-07T20:00:23.611Z,72.20
2019-06-07T20:02:51.551Z,73.70
2019-06-07T20:05:19.494Z,74.20
2019-06-07T20:07:47.506Z,74.70
2019-06-07T20:10:17.786Z,75.50
2019-06-07T20:12:45.782Z,75.70
2019-06-07T20:15:28.003Z,74.70
2019-06-07T20:17:43.809Z,74.80
2019-06-07T20:20:12.808Z,75.50
2019-06-07T20:22:40.706Z,76.00
2019-06-07T20:25:09.510Z,75.60
2019-06-07T20:27:37.699Z,74.10
2019-06-07T20:30:05.895Z,75.70
2019-06-07T20:32:33.817Z,75.60
2019-06-07T20:35:01.957Z,75.90
2019-06-07T20:37:29.833Z,75.60
2019-06-07T20:40:02.196Z,78.10
2019-06-07T20:42:27.712Z,76.40
2019-06-07T20:44:55.598Z,78.10
2019-06-07T20:47:23.576Z,75.10
2019-06-07T20:49:51.921Z,73.70
2019-06-07T20:52:19.891Z,75.90
2019-06-07T20:54:47.836Z,76.80
2019-06-07T20:57:20.599Z,76.80
2019-06-07T20:59:49.226Z,77.70
2019-06-07T21:02:17.206Z,76.60
2019-06-07T21:04:45.142Z,76.00
2019-06-07T21:07:13.049Z,76.40
2019-06-07T21:09:42.049Z,78.30
2019-06-07T21:12:11.866Z,79.50
2019-06-07T21:14:39.862Z,80.70
2019-06-07T21:17:08.269Z,80.90
2019-06-07T21:19:36.281Z,81.40
2019-06-07T21:22:04.625Z,82.10
2019-06-07T21:24:32.600Z,82.80
2019-06-07T21:27:01.633Z,82.40
2019-06-07T21:29:30.056Z,81.50
2019-06-07T21:31:57.946Z,81.80
2019-06-07T21:34:25.836Z,82.10
2019-06-07T21:36:53.879Z,82.80
2019-06-07T21:39:21.912Z,82.90
2019-06-07T21:41:49.911Z,80.80
2019-06-07T21:44:17.794Z,82.10
2019-06-07T21:46:45.687Z,82.10
2019-06-07T21:49:13.657Z,82.60
2019-06-07T21:51:41.530Z,82.70
2019-06-07T21:54:12.810Z,81.10
2019-06-07T21:56:39.318Z,79.30
2019-06-07T21:59:07.226Z,80.00
2019-06-07T22:01:35.331Z,82.10
2019-06-07T22:04:03.587Z,79.90
2019-06-07T22:06:32.461Z,75.90
2019-06-07T22:09:00.341Z,74.80
2019-06-07T22:11:28.208Z,75.20
2019-06-07T22:13:56.164Z,75.20
2019-06-07T22:16:29.191Z,75.30
2019-06-07T22:18:53.923Z,77.40
2019-06-07T22:21:21.962Z,76.90
2019-06-07T22:23:49.851Z,77.40
2019-06-07T22:26:17.794Z,79.40
2019-06-07T22:28:45.657Z,78.70
2019-06-07T22:31:14.840Z,78.90
2019-06-07T22:33:42.967Z,79.40
2019-06-07T22:36:11.077Z,79.60
2019-06-07T22:38:40.268Z,80.10
2019-06-07T22:41:09.336Z,81.30
2019-06-07T22:43:37.363Z,82.50
2019-06-07T22:46:06.736Z,82.00
2019-06-07T22:48:34.847Z,83.50
2019-06-07T22:51:07.711Z,82.10
2019-06-07T22:53:40.789Z,82.60
2019-06-07T22:56:18.135Z,82.50
2019-06-07T22:58:46.110Z,82.90
2019-06-07T23:01:14.556Z,83.80
2019-06-07T23:03:42.467Z,84.30
2019-06-07T23:06:10.483Z,83.40
2019-06-07T23:08:38.392Z,84.20
2019-06-07T23:11:06.292Z,83.70
2019-06-07T23:13:34.174Z,83.40
2019-06-07T23:16:02.134Z,84.10
2019-06-07T23:18:29.999Z,84.30
2019-06-07T23:20:57.954Z,82.20
2019-06-07T23:23:25.985Z,82.40
2019-06-07T23:25:53.917Z,82.30
2019-06-07T23:28:21.840Z,82.30
2019-06-07T23:30:49.734Z,81.90
2019-06-07T23:33:18.836Z,81.80
2019-06-07T23:35:46.686Z,83.00
2019-06-07T23:38:14.952Z,82.60
2019-06-07T23:40:42.801Z,81.90
2019-06-07T23:43:11.663Z,82.20
2019-06-07T23:45:39.536Z,83.00
2019-06-07T23:48:08.530Z,81.80
2019-06-07T23:50:36.359Z,83.70
2019-06-07T23:53:04.204Z,80.50
2019-06-07T23:55:32.084Z,78.40
2019-06-07T23:57:59.886Z,78.90
